Time,TemperatureF,DewpointF,PressureIn,WindDirection,WindDirectionDegrees,WindSpeedMPH,WindSpeedGustMPH,Humidity,HourlyPrecipIn,Conditions,Clouds,dailyrainin,SoftwareType,DateUTC
2013-06-25 00:05:00,69.0,67.5,29.79,SSW,197,1.0,6.0,95,0.00,,,0.53,Wunderground v.1.15,2013-06-25 05:05:00,
2013-06-25 00:11:00,68.9,67.7,29.78,South,190,1.0,6.0,96,0.00,,,0.53,Wunderground v.1.15,2013-06-25 05:11:00,
2013-06-25 00:17:00,69.0,67.8,29.78,West,263,1.0,6.0,96,0.00,,,0.53,Wunderground v.1.15,2013-06-25 05:17:00,
2013-06-25 00:22:00,69.0,67.8,29.78,SSW,210,1.0,6.0,96,0.00,,,0.53,Wunderground v.1.15,2013-06-25 05:22:00,
2013-06-25 00:28:00,69.1,67.9,29.78,South,177,1.0,6.0,96,0.00,,,0.53,Wunderground v.1.15,2013-06-25 05:28:00,
2013-06-25 00:34:00,69.0,67.8,29.78,SSE,167,1.0,6.0,96,0.00,,,0.53,Wunderground v.1.15,2013-06-25 05:34:00,
2013-06-25 00:40:00,69.1,67.9,29.77,South,175,0.0,6.0,96,0.00,,,0.53,Wunderground v.1.15,2013-06-25 05:40:00,
2013-06-25 00:45:00,69.1,67.9,29.77,East,81,0.0,6.0,96,0.00,,,0.53,Wunderground v.1.15,2013-06-25 05:45:00,
2013-06-25 00:51:00,69.2,68.0,29.77,South,176,0.0,6.0,96,0.00,,,0.53,Wunderground v.1.15,2013-06-25 05:51:00,
2013-06-25 00:57:00,69.3,68.1,29.77,SW,224,1.0,6.0,96,0.00,,,0.53,Wunderground v.1.15,2013-06-25 05:57:00,
2013-06-25 01:02:00,69.4,68.2,29.76,South,170,1.0,6.0,96,0.00,,,0.53,Wunderground v.1.15,2013-06-25 06:02:00,
2013-06-25 01:07:00,69.5,68.3,29.76,South,184,1.0,6.0,96,0.00,,,0.53,Wunderground v.1.15,2013-06-25 06:07:00,
2013-06-25 01:13:00,69.6,68.4,29.76,SSW,209,1.0,6.0,96,0.00,,,0.53,Wunderground v.1.15,2013-06-25 06:13:00,
2013-06-25 01:19:00,69.8,68.6,29.75,SW,219,2.0,6.0,96,0.00,,,0.53,Wunderground v.1.15,2013-06-25 06:19:00,
2013-06-25 01:24:00,70.0,68.8,29.75,West,262,2.0,6.0,96,0.00,,,0.00,Wunderground v.1.15,2013-06-25 06:24:00,
2013-06-25 01:30:00,70.2,69.0,29.76,WNW,283,2.0,6.0,96,0.00,,,0.00,Wunderground v.1.15,2013-06-25 06:30:00,
2013-06-25 01:36:00,70.3,69.1,29.76,West,262,2.0,6.0,96,0.00,,,0.00,Wunderground v.1.15,2013-06-25 06:36:00,
2013-06-25 01:42:00,70.4,69.2,29.75,WNW,284,1.0,6.0,96,0.00,,,0.00,Wunderground v.1.15,2013-06-25 06:42:00,
2013-06-25 01:47:00,70.4,69.2,29.76,North,349,1.0,6.0,96,0.00,,,0.00,Wunderground v.1.15,2013-06-25 06:47:00,
2013-06-25 01:53:00,70.3,69.1,29.75,South,173,1.0,6.0,96,0.00,,,0.00,Wunderground v.1.15,2013-06-25 06:53:00,
2013-06-25 01:59:00,70.3,69.1,29.75,South,169,1.0,6.0,96,0.00,,,0.00,Wunderground v.1.15,2013-06-25 06:59:00,
2013-06-25 02:05:00,70.3,69.1,29.75,NNW,340,1.0,6.0,96,0.00,,,0.00,Wunderground v.1.15,2013-06-25 07:05:00,
2013-06-25 02:10:00,70.3,69.1,29.75,South,174,1.0,6.0,96,0.00,,,0.00,Wunderground v.1.15,2013-06-25 07:10:00,
2013-06-25 02:16:00,70.3,69.1,29.75,South,173,0.0,6.0,96,0.00,,,0.00,Wunderground v.1.15,2013-06-25 07:16:00,
2013-06-25 02:22:00,70.3,69.1,29.75,South,173,0.0,6.0,96,0.00,,,0.00,Wunderground v.1.15,2013-06-25 07:22:00,
2013-06-25 02:28:00,70.3,69.1,29.75,South,173,0.0,6.0,96,0.00,,,0.00,Wunderground v.1.15,2013-06-25 07:28:00,
2013-06-25 02:34:00,70.3,69.4,29.75,South,173,0.0,6.0,97,0.00,,,0.00,Wunderground v.1.15,2013-06-25 07:34:00,
2013-06-25 02:40:00,70.4,69.5,29.75,South,174,0.0,6.0,97,0.00,,,0.00,Wunderground v.1.15,2013-06-25 07:40:00,
2013-06-25 02:46:00,70.4,69.5,29.75,South,173,0.0,6.0,97,0.00,,,0.00,Wunderground v.1.15,2013-06-25 07:46:00,
2013-06-25 02:51:00,70.5,69.6,29.75,South,178,0.0,6.0,97,0.00,,,0.00,Wunderground v.1.15,2013-06-25 07:51:00,
2013-06-25 02:57:00,70.5,69.6,29.75,South,176,0.0,6.0,97,0.00,,,0.00,Wunderground v.1.15,2013-06-25 07:57:00,
2013-06-25 03:03:00,70.7,69.8,29.75,SSE,165,0.0,6.0,97,0.00,,,0.00,Wunderground v.1.15,2013-06-25 08:03:00,
2013-06-25 03:09:00,70.8,69.9,29.75,SSE,167,0.0,6.0,97,0.00,,,0.00,Wunderground v.1.15,2013-06-25 08:09:00,
2013-06-25 03:14:00,70.8,69.9,29.74,SSE,167,0.0,6.0,97,0.00,,,0.00,Wunderground v.1.15,2013-06-25 08:14:00,
2013-06-25 03:20:00,70.9,70.0,29.74,South,186,0.0,6.0,97,0.00,,,0.00,Wunderground v.1.15,2013-06-25 08:20:00,
2013-06-25 03:26:00,71.1,70.2,29.74,WSW,246,0.0,6.0,97,0.00,,,0.00,Wunderground v.1.15,2013-06-25 08:26:00,
2013-06-25 03:32:00,71.3,70.1,29.74,South,184,1.0,6.0,96,0.00,,,0.00,Wunderground v.1.15,2013-06-25 08:32:00,
2013-06-25 03:38:00,71.5,70.3,29.74,South,186,1.0,6.0,96,0.00,,,0.00,Wunderground v.1.15,2013-06-25 08:38:00,
2013-06-25 03:44:00,71.6,70.4,29.74,SSE,162,1.0,6.0,96,0.00,,,0.00,Wunderground v.1.15,2013-06-25 08:44:00,
2013-06-25 03:50:00,71.7,70.5,29.74,SSE,166,1.0,6.0,96,0.00,,,0.00,Wunderground v.1.15,2013-06-25 08:50:00,
2013-06-25 03:55:00,71.8,70.6,29.76,ESE,108,1.0,6.0,96,0.00,,,0.00,Wunderground v.1.15,2013-06-25 08:55:00,
2013-06-25 04:01:00,71.9,70.4,29.76,ESE,108,0.0,6.0,95,0.00,,,0.00,Wunderground v.1.15,2013-06-25 09:01:00,
2013-06-25 04:07:00,71.9,70.4,29.78,ESE,108,0.0,6.0,95,0.00,,,0.00,Wunderground v.1.15,2013-06-25 09:07:00,
2013-06-25 04:13:00,71.8,70.3,29.77,ESE,121,0.0,6.0,95,0.00,,,0.01,Wunderground v.1.15,2013-06-25 09:13:00,
2013-06-25 04:18:00,71.6,70.1,29.77,SSE,148,0.0,6.0,95,0.18,,,0.02,Wunderground v.1.15,2013-06-25 09:18:00,
2013-06-25 04:24:00,71.4,70.2,29.76,SSE,155,0.0,6.0,96,0.10,,,0.03,Wunderground v.1.15,2013-06-25 09:24:00,
2013-06-25 04:30:00,71.3,70.1,29.76,SSE,153,1.0,1.0,96,0.07,,,0.03,Wunderground v.1.15,2013-06-25 09:30:00,
2013-06-25 04:36:00,71.2,70.0,29.76,SSE,154,0.0,6.0,96,0.04,,,0.03,Wunderground v.1.15,2013-06-25 09:36:00,
2013-06-25 04:42:00,71.1,69.9,29.76,SSE,153,0.0,6.0,96,0.00,,,0.03,Wunderground v.1.15,2013-06-25 09:42:00,
2013-06-25 04:48:00,71.0,69.8,29.75,SSE,155,0.0,6.0,96,0.00,,,0.03,Wunderground v.1.15,2013-06-25 09:48:00,
2013-06-25 04:54:00,70.9,70.0,29.75,SSE,153,0.0,6.0,97,0.00,,,0.03,Wunderground v.1.15,2013-06-25 09:54:00,
2013-06-25 04:59:00,70.7,69.8,29.75,SSE,153,0.0,6.0,97,0.00,,,0.03,Wunderground v.1.15,2013-06-25 09:59:00,
2013-06-25 05:05:00,70.6,69.7,29.75,SSE,153,0.0,6.0,97,0.00,,,0.03,Wunderground v.1.15,2013-06-25 10:05:00,
2013-06-25 05:11:00,70.5,69.6,29.74,SSE,153,0.0,6.0,97,0.00,,,0.03,Wunderground v.1.15,2013-06-25 10:11:00,
2013-06-25 05:17:00,70.6,69.7,29.74,SSE,153,0.0,6.0,97,0.00,,,0.03,Wunderground v.1.15,2013-06-25 10:17:00,
2013-06-25 05:23:00,70.5,69.6,29.74,SSE,157,0.0,6.0,97,0.00,,,0.03,Wunderground v.1.15,2013-06-25 10:23:00,
2013-06-25 05:29:00,70.5,69.6,29.74,South,172,0.0,6.0,97,0.00,,,0.03,Wunderground v.1.15,2013-06-25 10:29:00,
2013-06-25 05:35:00,70.6,69.7,29.74,SSE,162,1.0,6.0,97,0.00,,,0.03,Wunderground v.1.15,2013-06-25 10:35:00,
2013-06-25 05:41:00,70.7,69.8,29.73,SSW,193,1.0,6.0,97,0.00,,,0.03,Wunderground v.1.15,2013-06-25 10:41:00,
2013-06-25 05:46:00,70.7,69.8,29.73,WSW,255,1.0,6.0,97,0.00,,,0.03,Wunderground v.1.15,2013-06-25 10:46:00,
2013-06-25 05:52:00,70.8,69.9,29.73,SSE,162,1.0,6.0,97,0.00,,,0.03,Wunderground v.1.15,2013-06-25 10:52:00,
2013-06-25 05:58:00,70.9,69.7,29.73,NNW,331,2.0,6.0,96,0.00,,,0.03,Wunderground v.1.15,2013-06-25 10:58:00,
2013-06-25 06:04:00,71.1,69.9,29.74,West,281,2.0,6.0,96,0.00,,,0.03,Wunderground v.1.15,2013-06-25 11:04:00,
2013-06-25 06:09:00,71.1,69.9,29.73,WNW,295,2.0,6.0,96,0.00,,,0.03,Wunderground v.1.15,2013-06-25 11:09:00,
2013-06-25 06:15:00,71.1,69.9,29.74,WNW,285,1.0,6.0,96,0.00,,,0.03,Wunderground v.1.15,2013-06-25 11:15:00,
2013-06-25 06:21:00,71.1,69.6,29.74,WNW,285,2.0,6.0,95,0.00,,,0.03,Wunderground v.1.15,2013-06-25 11:21:00,
2013-06-25 06:27:00,71.1,69.6,29.75,NNW,343,2.0,6.0,95,0.00,,,0.03,Wunderground v.1.15,2013-06-25 11:27:00,
2013-06-25 06:33:00,71.2,69.7,29.75,WSW,253,1.0,6.0,95,0.00,,,0.03,Wunderground v.1.15,2013-06-25 11:33:00,
2013-06-25 06:39:00,71.2,69.7,29.74,ENE,60,2.0,6.0,95,0.00,,,0.03,Wunderground v.1.15,2013-06-25 11:39:00,
2013-06-25 06:45:00,71.3,69.8,29.74,West,271,2.0,6.0,95,0.00,,,0.03,Wunderground v.1.15,2013-06-25 11:45:00,
2013-06-25 06:50:00,71.3,69.8,29.74,West,271,1.0,1.0,95,0.00,,,0.03,Wunderground v.1.15,2013-06-25 11:50:00,
2013-06-25 06:55:00,71.3,69.8,29.74,West,271,0.0,6.0,95,0.00,,,0.03,Wunderground v.1.15,2013-06-25 11:55:00,
2013-06-25 07:01:00,71.4,69.6,29.75,West,271,0.0,6.0,94,0.00,,,0.03,Wunderground v.1.15,2013-06-25 12:01:00,
2013-06-25 07:07:00,71.4,69.6,29.75,West,273,0.0,6.0,94,0.00,,,0.03,Wunderground v.1.15,2013-06-25 12:07:00,
2013-06-25 07:12:00,71.4,69.6,29.75,West,273,0.0,6.0,94,0.00,,,0.03,Wunderground v.1.15,2013-06-25 12:12:00,
2013-06-25 07:18:00,71.5,69.7,29.75,South,170,0.0,6.0,94,0.00,,,0.03,Wunderground v.1.15,2013-06-25 12:18:00,
2013-06-25 07:24:00,71.5,69.7,29.75,South,170,0.0,6.0,94,0.00,,,0.03,Wunderground v.1.15,2013-06-25 12:24:00,
2013-06-25 07:31:00,71.6,69.8,29.75,SW,215,0.0,6.0,94,0.00,,,0.03,Wunderground v.1.15,2013-06-25 12:31:00,
2013-06-25 07:36:00,71.7,69.9,29.75,WSW,247,1.0,6.0,94,0.00,,,0.03,Wunderground v.1.15,2013-06-25 12:36:00,
2013-06-25 07:42:00,71.9,70.1,29.75,South,180,1.0,6.0,94,0.00,,,0.03,Wunderground v.1.15,2013-06-25 12:42:00,
2013-06-25 07:48:00,72.2,70.1,29.76,South,187,1.0,6.0,93,0.00,,,0.03,Wunderground v.1.15,2013-06-25 12:48:00,
2013-06-25 07:54:00,72.2,70.1,29.76,South,187,0.0,6.0,93,0.00,,,0.03,Wunderground v.1.15,2013-06-25 12:54:00,
2013-06-25 07:59:00,72.4,70.3,29.76,South,187,0.0,6.0,93,0.00,,,0.03,Wunderground v.1.15,2013-06-25 12:59:00,
2013-06-25 08:05:00,72.5,70.4,29.77,South,187,0.0,6.0,93,0.00,,,0.03,Wunderground v.1.15,2013-06-25 13:05:00,
2013-06-25 08:11:00,72.6,70.5,29.77,South,191,0.0,6.0,93,0.00,,,0.03,Wunderground v.1.15,2013-06-25 13:11:00,
2013-06-25 08:17:00,72.9,70.4,29.77,South,191,0.0,6.0,92,0.00,,,0.03,Wunderground v.1.15,2013-06-25 13:17:00,
2013-06-25 08:22:00,73.2,70.7,29.77,SSW,192,0.0,6.0,92,0.00,,,0.03,Wunderground v.1.15,2013-06-25 13:22:00,
2013-06-25 08:27:00,73.3,70.8,29.78,South,169,0.0,6.0,92,0.00,,,0.03,Wunderground v.1.15,2013-06-25 13:27:00,
2013-06-25 08:33:00,73.5,70.7,29.77,West,262,1.0,6.0,91,0.00,,,0.03,Wunderground v.1.15,2013-06-25 13:33:00,
2013-06-25 08:39:00,73.7,70.9,29.78,West,269,1.0,6.0,91,0.00,,,0.03,Wunderground v.1.15,2013-06-25 13:39:00,
2013-06-25 08:44:00,73.7,70.9,29.78,SW,225,1.0,6.0,91,0.00,,,0.03,Wunderground v.1.15,2013-06-25 13:44:00,
2013-06-25 08:50:00,73.8,71.0,29.78,South,181,1.0,6.0,91,0.00,,,0.03,Wunderground v.1.15,2013-06-25 13:50:00,
2013-06-25 08:56:00,73.9,71.1,29.79,South,181,0.0,6.0,91,0.00,,,0.03,Wunderground v.1.15,2013-06-25 13:56:00,
2013-06-25 09:02:00,74.0,71.2,29.78,South,181,0.0,6.0,91,0.00,,,0.03,Wunderground v.1.15,2013-06-25 14:02:00,
2013-06-25 09:07:00,74.1,71.3,29.79,SSE,157,0.0,6.0,91,0.00,,,0.03,Wunderground v.1.15,2013-06-25 14:07:00,
2013-06-25 09:13:00,74.2,71.4,29.79,South,191,0.0,6.0,91,0.00,,,0.03,Wunderground v.1.15,2013-06-25 14:13:00,
2013-06-25 09:19:00,74.2,71.4,29.80,SE,139,0.0,6.0,91,0.00,,,0.03,Wunderground v.1.15,2013-06-25 14:19:00,
2013-06-25 09:25:00,74.1,71.0,29.80,South,177,0.0,6.0,90,0.00,,,0.03,Wunderground v.1.15,2013-06-25 14:25:00,
2013-06-25 09:30:00,74.1,71.3,29.80,South,177,0.0,6.0,91,0.00,,,0.03,Wunderground v.1.15,2013-06-25 14:30:00,
2013-06-25 09:36:00,74.1,71.3,29.80,WSW,245,0.0,6.0,91,0.00,,,0.03,Wunderground v.1.15,2013-06-25 14:36:00,
2013-06-25 09:42:00,74.0,71.2,29.80,SSE,164,0.0,6.0,91,0.00,,,0.03,Wunderground v.1.15,2013-06-25 14:42:00,
2013-06-25 09:48:00,74.1,71.3,29.80,South,172,0.0,6.0,91,0.00,,,0.03,Wunderground v.1.15,2013-06-25 14:48:00,
2013-06-25 09:54:00,74.2,71.4,29.80,South,189,0.0,6.0,91,0.00,,,0.03,Wunderground v.1.15,2013-06-25 14:54:00,
2013-06-25 10:00:00,74.6,71.8,29.79,NNE,23,1.0,6.0,91,0.00,,,0.03,Wunderground v.1.15,2013-06-25 15:00:00,
2013-06-25 10:06:00,75.3,72.2,29.79,South,176,1.0,6.0,90,0.00,,,0.03,Wunderground v.1.15,2013-06-25 15:06:00,
2013-06-25 10:11:00,75.6,72.1,29.79,South,172,1.0,6.0,89,0.00,,,0.03,Wunderground v.1.15,2013-06-25 15:11:00,
2013-06-25 10:17:00,75.8,72.0,29.79,East,79,1.0,6.0,88,0.00,,,0.03,Wunderground v.1.15,2013-06-25 15:17:00,
2013-06-25 10:23:00,76.2,72.4,29.78,SSE,152,1.0,6.0,88,0.00,,,0.03,Wunderground v.1.15,2013-06-25 15:23:00,
2013-06-25 10:29:00,76.4,72.2,29.78,NW,316,1.0,6.0,87,0.00,,,0.03,Wunderground v.1.15,2013-06-25 15:29:00,
2013-06-25 10:34:00,76.6,72.4,29.77,South,176,1.0,6.0,87,0.00,,,0.03,Wunderground v.1.15,2013-06-25 15:34:00,
2013-06-25 10:40:00,76.6,72.4,29.77,South,172,1.0,6.0,87,0.00,,,0.03,Wunderground v.1.15,2013-06-25 15:40:00,
2013-06-25 10:46:00,76.5,72.3,29.77,South,178,1.0,6.0,87,0.00,,,0.03,Wunderground v.1.15,2013-06-25 15:46:00,
2013-06-25 10:52:00,76.6,72.4,29.76,South,174,1.0,6.0,87,0.00,,,0.03,Wunderground v.1.15,2013-06-25 15:52:00,
2013-06-25 10:58:00,77.0,72.8,29.76,WSW,246,1.0,6.0,87,0.00,,,0.03,Wunderground v.1.15,2013-06-25 15:58:00,
2013-06-25 11:04:00,78.2,74.0,29.76,South,188,1.0,6.0,87,0.00,,,0.03,Wunderground v.1.15,2013-06-25 16:04:00,
2013-06-25 11:10:00,79.3,73.7,29.76,WNW,294,2.0,6.0,83,0.00,,,0.03,Wunderground v.1.15,2013-06-25 16:10:00,
2013-06-25 11:15:00,80.2,74.2,29.77,NNE,32,3.0,6.0,82,0.00,,,0.03,Wunderground v.1.15,2013-06-25 16:15:00,
2013-06-25 11:21:00,80.6,74.2,29.78,ENE,75,3.0,6.0,81,0.00,,,0.03,Wunderground v.1.15,2013-06-25 16:21:00,
2013-06-25 11:26:00,81.1,74.3,29.78,NNE,23,4.0,6.0,80,0.00,,,0.03,Wunderground v.1.15,2013-06-25 16:26:00,
2013-06-25 11:32:00,81.7,74.5,29.78,WNW,289,3.0,6.0,79,0.00,,,0.03,Wunderground v.1.15,2013-06-25 16:32:00,
2013-06-25 11:38:00,82.2,75.0,29.79,NNE,27,3.0,6.0,79,0.00,,,0.03,Wunderground v.1.15,2013-06-25 16:38:00,
2013-06-25 11:44:00,82.7,75.5,29.78,NNE,32,3.0,6.0,79,0.00,,,0.03,Wunderground v.1.15,2013-06-25 16:44:00,
2013-06-25 11:50:00,82.8,74.8,29.78,ENE,65,3.0,3.0,77,0.00,,,0.03,Wunderground v.1.15,2013-06-25 16:50:00,
2013-06-25 11:56:00,82.9,75.7,29.78,ENE,69,3.0,6.0,79,0.00,,,0.03,Wunderground v.1.15,2013-06-25 16:56:00,
2013-06-25 12:02:00,82.7,74.8,29.77,NNE,30,3.0,6.0,77,0.00,,,0.03,Wunderground v.1.15,2013-06-25 17:02:00,
2013-06-25 12:07:00,82.4,74.5,29.77,NE,43,3.0,6.0,77,0.00,,,0.03,Wunderground v.1.15,2013-06-25 17:07:00,
2013-06-25 12:13:00,83.0,75.4,29.77,East,79,3.0,6.0,78,0.00,,,0.03,Wunderground v.1.15,2013-06-25 17:13:00,
2013-06-25 12:19:00,83.4,75.0,29.77,NNW,336,2.0,6.0,76,0.00,,,0.03,Wunderground v.1.15,2013-06-25 17:19:00,
2013-06-25 12:25:00,83.7,75.3,29.77,NW,311,3.0,6.0,76,0.00,,,0.03,Wunderground v.1.15,2013-06-25 17:25:00,
2013-06-25 12:30:00,83.7,75.3,29.77,NE,37,3.0,3.0,76,0.00,,,0.03,Wunderground v.1.15,2013-06-25 17:30:00,
2013-06-25 12:36:00,84.3,75.5,29.77,East,90,3.0,6.0,75,0.00,,,0.03,Wunderground v.1.15,2013-06-25 17:36:00,
2013-06-25 12:42:00,84.6,75.8,29.77,NW,310,3.0,6.0,75,0.00,,,0.03,Wunderground v.1.15,2013-06-25 17:42:00,
2013-06-25 12:48:00,84.9,76.1,29.76,West,278,2.0,6.0,75,0.00,,,0.03,Wunderground v.1.15,2013-06-25 17:48:00,
2013-06-25 12:54:00,84.5,74.9,29.76,WNW,295,3.0,6.0,73,0.00,,,0.03,Wunderground v.1.15,2013-06-25 17:54:00,
2013-06-25 13:00:00,84.6,75.4,29.76,NE,37,3.0,3.0,74,0.00,,,0.03,Wunderground v.1.15,2013-06-25 18:00:00,
2013-06-25 13:06:00,85.0,75.4,29.75,North,11,3.0,6.0,73,0.00,,,0.03,Wunderground v.1.15,2013-06-25 18:06:00,
2013-06-25 13:11:00,85.1,74.6,29.75,NNE,29,3.0,6.0,71,0.00,,,0.03,Wunderground v.1.15,2013-06-25 18:11:00,
2013-06-25 13:17:00,84.7,74.7,29.75,NW,319,3.0,6.0,72,0.00,,,0.03,Wunderground v.1.15,2013-06-25 18:17:00,
2013-06-25 13:23:00,85.1,75.5,29.74,NNW,333,2.0,6.0,73,0.00,,,0.03,Wunderground v.1.15,2013-06-25 18:23:00,
2013-06-25 13:29:00,85.2,75.1,29.75,NNE,32,2.0,6.0,72,0.00,,,0.03,Wunderground v.1.15,2013-06-25 18:29:00,
2013-06-25 13:34:00,85.2,73.9,29.75,NW,326,2.0,6.0,69,0.00,,,0.03,Wunderground v.1.15,2013-06-25 18:34:00,
2013-06-25 13:40:00,85.1,73.3,29.75,NE,46,3.0,6.0,68,0.00,,,0.03,Wunderground v.1.15,2013-06-25 18:40:00,
2013-06-25 13:46:00,85.8,74.0,29.74,East,82,3.0,6.0,68,0.00,,,0.03,Wunderground v.1.15,2013-06-25 18:46:00,
2013-06-25 13:52:00,86.3,72.2,29.74,NNE,18,3.0,6.0,63,0.00,,,0.03,Wunderground v.1.15,2013-06-25 18:52:00,
2013-06-25 13:58:00,86.5,72.4,29.74,NE,47,3.0,6.0,63,0.00,,,0.03,Wunderground v.1.15,2013-06-25 18:58:00,
2013-06-25 14:04:00,86.4,70.9,29.74,North,351,3.0,6.0,60,0.00,,,0.03,Wunderground v.1.15,2013-06-25 19:04:00,
2013-06-25 14:10:00,86.5,71.5,29.74,East,84,3.0,3.0,61,0.00,,,0.03,Wunderground v.1.15,2013-06-25 19:10:00,
2013-06-25 14:16:00,86.7,71.6,29.74,East,82,3.0,6.0,61,0.00,,,0.03,Wunderground v.1.15,2013-06-25 19:16:00,
2013-06-25 14:21:00,86.9,72.8,29.74,ENE,63,3.0,6.0,63,0.00,,,0.03,Wunderground v.1.15,2013-06-25 19:21:00,
2013-06-25 14:27:00,86.9,73.3,29.74,East,83,3.0,6.0,64,0.00,,,0.03,Wunderground v.1.15,2013-06-25 19:27:00,
2013-06-25 14:33:00,86.7,73.1,29.74,NNE,23,3.0,6.0,64,0.00,,,0.03,Wunderground v.1.15,2013-06-25 19:33:00,
2013-06-25 14:39:00,86.5,73.8,29.74,East,92,3.0,6.0,66,0.00,,,0.03,Wunderground v.1.15,2013-06-25 19:39:00,
2013-06-25 14:45:00,86.3,72.7,29.74,NE,35,2.0,6.0,64,0.00,,,0.03,Wunderground v.1.15,2013-06-25 19:45:00,
2013-06-25 14:50:00,85.8,72.2,29.73,North,350,3.0,3.0,64,0.00,,,0.03,Wunderground v.1.15,2013-06-25 19:50:00,
2013-06-25 14:56:00,85.4,73.2,29.73,ENE,77,2.0,6.0,67,0.00,,,0.03,Wunderground v.1.15,2013-06-25 19:56:00,
2013-06-25 15:02:00,85.1,72.9,29.73,NW,312,2.0,6.0,67,0.00,,,0.03,Wunderground v.1.15,2013-06-25 20:02:00,
2013-06-25 15:08:00,85.6,72.0,29.73,NW,321,2.0,6.0,64,0.00,,,0.03,Wunderground v.1.15,2013-06-25 20:08:00,
2013-06-25 15:13:00,86.2,72.6,29.72,NNE,23,2.0,6.0,64,0.00,,,0.03,Wunderground v.1.15,2013-06-25 20:13:00,
2013-06-25 15:19:00,86.4,71.4,29.72,NNW,333,2.0,6.0,61,0.00,,,0.03,Wunderground v.1.15,2013-06-25 20:19:00,
2013-06-25 15:25:00,86.3,72.2,29.72,WSW,237,2.0,6.0,63,0.00,,,0.03,Wunderground v.1.15,2013-06-25 20:25:00,
2013-06-25 15:31:00,86.5,72.9,29.73,East,93,1.0,6.0,64,0.00,,,0.03,Wunderground v.1.15,2013-06-25 20:31:00,
2013-06-25 15:36:00,86.5,72.4,29.73,East,80,1.0,6.0,63,0.00,,,0.03,Wunderground v.1.15,2013-06-25 20:36:00,
2013-06-25 15:42:00,86.9,72.8,29.72,NW,307,2.0,6.0,63,0.00,,,0.03,Wunderground v.1.15,2013-06-25 20:42:00,
2013-06-25 15:48:00,86.9,71.8,29.72,NE,37,3.0,6.0,61,0.00,,,0.03,Wunderground v.1.15,2013-06-25 20:48:00,
2013-06-25 15:53:00,86.6,72.0,29.72,ENE,68,3.0,6.0,62,0.00,,,0.03,Wunderground v.1.15,2013-06-25 20:53:00,
2013-06-25 15:59:00,85.9,72.3,29.72,WNW,282,2.0,6.0,64,0.00,,,0.03,Wunderground v.1.15,2013-06-25 20:59:00,
2013-06-25 16:04:00,85.5,72.8,29.72,NNW,333,1.0,6.0,66,0.00,,,0.03,Wunderground v.1.15,2013-06-25 21:04:00,
2013-06-25 16:10:00,85.2,73.0,29.72,WNW,288,1.0,1.0,67,0.00,,,0.03,Wunderground v.1.15,2013-06-25 21:10:00,
2013-06-25 16:16:00,85.0,72.4,29.71,SSE,153,2.0,6.0,66,0.00,,,0.03,Wunderground v.1.15,2013-06-25 21:16:00,
2013-06-25 16:22:00,84.8,72.2,29.71,South,181,1.0,6.0,66,0.00,,,0.03,Wunderground v.1.15,2013-06-25 21:22:00,
2013-06-25 16:27:00,84.7,72.5,29.71,South,184,1.0,6.0,67,0.00,,,0.03,Wunderground v.1.15,2013-06-25 21:27:00,
2013-06-25 16:33:00,84.5,73.6,29.70,SSE,165,1.0,6.0,70,0.00,,,0.03,Wunderground v.1.15,2013-06-25 21:33:00,
2013-06-25 16:39:00,84.9,74.9,29.70,SSW,194,1.0,6.0,72,0.00,,,0.03,Wunderground v.1.15,2013-06-25 21:39:00,
2013-06-25 16:44:00,85.4,74.9,29.69,West,280,1.0,6.0,71,0.00,,,0.03,Wunderground v.1.15,2013-06-25 21:44:00,
2013-06-25 16:50:00,85.4,74.9,29.69,North,352,2.0,6.0,71,0.00,,,0.03,Wunderground v.1.15,2013-06-25 21:50:00,
2013-06-25 16:55:00,85.3,73.5,29.69,West,269,2.0,6.0,68,0.00,,,0.03,Wunderground v.1.15,2013-06-25 21:55:00,
2013-06-25 17:01:00,85.0,74.5,29.69,East,91,2.0,6.0,71,0.00,,,0.03,Wunderground v.1.15,2013-06-25 22:01:00,
2013-06-25 17:07:00,84.6,72.9,29.69,West,271,2.0,6.0,68,0.00,,,0.03,Wunderground v.1.15,2013-06-25 22:07:00,
2013-06-25 17:13:00,84.5,73.2,29.69,NE,47,2.0,6.0,69,0.00,,,0.03,Wunderground v.1.15,2013-06-25 22:13:00,
2013-06-25 17:19:00,84.4,73.5,29.68,WSW,245,2.0,6.0,70,0.00,,,0.03,Wunderground v.1.15,2013-06-25 22:19:00,
2013-06-25 17:25:00,84.3,74.3,29.68,NNW,343,2.0,6.0,72,0.00,,,0.03,Wunderground v.1.15,2013-06-25 22:25:00,
2013-06-25 17:31:00,84.7,74.7,29.68,WNW,285,2.0,4.0,72,0.00,,,0.03,Wunderground v.1.15,2013-06-25 22:31:00,
2013-06-25 17:36:00,84.5,74.1,29.68,NW,314,2.0,6.0,71,0.00,,,0.03,Wunderground v.1.15,2013-06-25 22:36:00,
2013-06-25 17:42:00,84.1,74.1,29.68,ESE,106,2.0,6.0,72,0.00,,,0.03,Wunderground v.1.15,2013-06-25 22:42:00,
2013-06-25 17:48:00,84.0,74.0,29.68,NE,56,2.0,6.0,72,0.00,,,0.03,Wunderground v.1.15,2013-06-25 22:48:00,
2013-06-25 17:54:00,83.9,74.3,29.68,East,85,2.0,6.0,73,0.00,,,0.03,Wunderground v.1.15,2013-06-25 22:54:00,
2013-06-25 17:59:00,83.9,74.3,29.68,SSE,157,2.0,6.0,73,0.00,,,0.03,Wunderground v.1.15,2013-06-25 22:59:00,
2013-06-25 18:05:00,83.7,74.5,29.68,West,278,1.0,6.0,74,0.00,,,0.03,Wunderground v.1.15,2013-06-25 23:05:00,
2013-06-25 18:10:00,83.5,74.7,29.68,West,278,1.0,6.0,75,0.00,,,0.03,Wunderground v.1.15,2013-06-25 23:10:00,
2013-06-25 18:16:00,83.2,74.8,29.69,SE,131,1.0,6.0,76,0.00,,,0.03,Wunderground v.1.15,2013-06-25 23:16:00,
2013-06-25 18:22:00,83.1,74.7,29.69,East,87,1.0,6.0,76,0.00,,,0.03,Wunderground v.1.15,2013-06-25 23:22:00,
2013-06-25 18:28:00,83.1,74.7,29.69,West,266,2.0,6.0,76,0.00,,,0.03,Wunderground v.1.15,2013-06-25 23:28:00,
2013-06-25 18:34:00,83.0,74.6,29.68,North,349,2.0,6.0,76,0.00,,,0.03,Wunderground v.1.15,2013-06-25 23:34:00,
2013-06-25 18:40:00,82.7,74.8,29.69,NNW,347,2.0,6.0,77,0.00,,,0.03,Wunderground v.1.15,2013-06-25 23:40:00,
2013-06-25 18:45:00,82.5,74.6,29.68,WSW,252,1.0,6.0,77,0.00,,,0.03,Wunderground v.1.15,2013-06-25 23:45:00,
2013-06-25 18:51:00,82.3,74.7,29.69,SE,136,1.0,6.0,78,0.00,,,0.03,Wunderground v.1.15,2013-06-25 23:51:00,
2013-06-25 18:57:00,82.2,74.7,29.69,West,278,2.0,6.0,78,0.00,,,0.03,Wunderground v.1.15,2013-06-25 23:57:00,
2013-06-25 19:02:00,82.1,74.6,29.69,ESE,104,2.0,6.0,78,0.00,,,0.03,Wunderground v.1.15,2013-06-26 00:02:00,
2013-06-25 19:07:00,82.0,74.5,29.69,East,85,1.0,6.0,78,0.00,,,0.03,Wunderground v.1.15,2013-06-26 00:07:00,
2013-06-25 19:13:00,81.9,74.7,29.69,WNW,299,1.0,6.0,79,0.00,,,0.03,Wunderground v.1.15,2013-06-26 00:13:00,
2013-06-25 19:19:00,81.8,74.6,29.69,NW,304,1.0,6.0,79,0.00,,,0.03,Wunderground v.1.15,2013-06-26 00:19:00,
2013-06-25 19:25:00,81.7,74.5,29.69,ESE,120,1.0,6.0,79,0.00,,,0.03,Wunderground v.1.15,2013-06-26 00:25:00,
2013-06-25 19:30:00,81.6,74.5,29.68,ESE,113,1.0,6.0,79,0.00,,,0.03,Wunderground v.1.15,2013-06-26 00:30:00,
2013-06-25 19:36:00,81.5,74.7,29.68,East,85,1.0,6.0,80,0.00,,,0.03,Wunderground v.1.15,2013-06-26 00:36:00,
2013-06-25 19:42:00,81.4,74.6,29.68,SE,127,1.0,6.0,80,0.00,,,0.03,Wunderground v.1.15,2013-06-26 00:42:00,
2013-06-25 19:48:00,81.3,74.5,29.69,NNW,332,1.0,6.0,80,0.00,,,0.03,Wunderground v.1.15,2013-06-26 00:48:00,
2013-06-25 19:54:00,81.3,74.5,29.69,ENE,77,1.0,6.0,80,0.00,,,0.03,Wunderground v.1.15,2013-06-26 00:54:00,
2013-06-25 20:00:00,81.2,74.4,29.69,WSW,257,1.0,1.0,80,0.00,,,0.03,Wunderground v.1.15,2013-06-26 01:00:00,
2013-06-25 20:03:00,81.1,74.3,29.69,South,191,1.0,6.0,80,0.00,,,0.03,Wunderground v.1.15,2013-06-26 01:03:00,
2013-06-25 20:09:00,81.0,74.6,29.69,South,181,0.0,6.0,81,0.00,,,0.03,Wunderground v.1.15,2013-06-26 01:09:00,
2013-06-25 20:14:00,80.9,74.9,29.69,South,181,0.0,6.0,82,0.00,,,0.03,Wunderground v.1.15,2013-06-26 01:14:00,
2013-06-25 20:20:00,80.7,74.7,29.69,South,172,0.0,6.0,82,0.00,,,0.03,Wunderground v.1.15,2013-06-26 01:20:00,
2013-06-25 20:26:00,80.5,74.9,29.69,South,183,0.0,6.0,83,0.00,,,0.03,Wunderground v.1.15,2013-06-26 01:26:00,
2013-06-25 20:31:00,80.3,74.7,29.69,NW,315,0.0,6.0,83,0.00,,,0.03,Wunderground v.1.15,2013-06-26 01:31:00,
2013-06-25 20:37:00,80.3,75.0,29.68,NW,311,0.0,6.0,84,0.00,,,0.03,Wunderground v.1.15,2013-06-26 01:37:00,
2013-06-25 20:43:00,80.2,74.9,29.68,NW,321,0.0,6.0,84,0.00,,,0.03,Wunderground v.1.15,2013-06-26 01:43:00,
2013-06-25 20:49:00,80.1,74.8,29.67,West,261,1.0,6.0,84,0.00,,,0.03,Wunderground v.1.15,2013-06-26 01:49:00,
2013-06-25 20:54:00,80.0,74.7,29.68,West,278,1.0,6.0,84,0.00,,,0.03,Wunderground v.1.15,2013-06-26 01:54:00,
2013-06-25 21:00:00,80.1,74.8,29.68,NW,313,2.0,6.0,84,0.00,,,0.03,Wunderground v.1.15,2013-06-26 02:00:00,
2013-06-25 21:06:00,80.1,74.8,29.68,SSW,209,2.0,6.0,84,0.00,,,0.03,Wunderground v.1.15,2013-06-26 02:06:00,
2013-06-25 21:12:00,80.1,74.8,29.68,WSW,243,2.0,6.0,84,0.00,,,0.03,Wunderground v.1.15,2013-06-26 02:12:00,
2013-06-25 21:17:00,80.1,74.8,29.68,South,181,1.0,6.0,84,0.00,,,0.03,Wunderground v.1.15,2013-06-26 02:17:00,
2013-06-25 21:23:00,80.0,74.7,29.68,WNW,288,1.0,6.0,84,0.00,,,0.03,Wunderground v.1.15,2013-06-26 02:23:00,
2013-06-25 21:29:00,79.9,74.6,29.69,WNW,288,0.0,6.0,84,0.00,,,0.03,Wunderground v.1.15,2013-06-26 02:29:00,
2013-06-25 21:35:00,79.8,74.9,29.68,West,263,0.0,6.0,85,0.00,,,0.03,Wunderground v.1.15,2013-06-26 02:35:00,
2013-06-25 21:41:00,79.6,74.7,29.68,West,276,1.0,6.0,85,0.00,,,0.03,Wunderground v.1.15,2013-06-26 02:41:00,
2013-06-25 21:47:00,79.5,74.9,29.68,South,176,1.0,6.0,86,0.00,,,0.03,Wunderground v.1.15,2013-06-26 02:47:00,
2013-06-25 21:53:00,79.4,74.8,29.68,SE,145,1.0,6.0,86,0.00,,,0.03,Wunderground v.1.15,2013-06-26 02:53:00,
2013-06-25 21:59:00,79.2,74.6,29.68,SE,146,0.0,6.0,86,0.00,,,0.03,Wunderground v.1.15,2013-06-26 02:59:00,
2013-06-25 22:04:00,79.1,74.9,29.68,SE,146,0.0,6.0,87,0.00,,,0.03,Wunderground v.1.15,2013-06-26 03:04:00,
2013-06-25 22:10:00,78.9,74.7,29.68,SSE,147,0.0,6.0,87,0.00,,,0.03,Wunderground v.1.15,2013-06-26 03:10:00,
2013-06-25 22:15:00,78.7,74.5,29.68,SE,146,0.0,6.0,87,0.00,,,0.03,Wunderground v.1.15,2013-06-26 03:15:00,
2013-06-25 22:20:00,78.6,74.7,29.69,SSE,147,0.0,6.0,88,0.00,,,0.03,Wunderground v.1.15,2013-06-26 03:20:00,
2013-06-25 22:26:00,78.3,74.5,29.69,SE,146,0.0,6.0,88,0.00,,,0.03,Wunderground v.1.15,2013-06-26 03:26:00,
2013-06-25 22:31:00,78.1,74.6,29.69,SE,146,0.0,6.0,89,0.00,,,0.03,Wunderground v.1.15,2013-06-26 03:31:00,
2013-06-25 22:37:00,78.1,74.6,29.69,SE,146,0.0,6.0,89,0.00,,,0.03,Wunderground v.1.15,2013-06-26 03:37:00,
2013-06-25 22:43:00,78.0,74.5,29.68,SE,146,0.0,6.0,89,0.00,,,0.03,Wunderground v.1.15,2013-06-26 03:43:00,
2013-06-25 22:48:00,77.8,74.3,29.68,SE,146,0.0,6.0,89,0.00,,,0.03,Wunderground v.1.15,2013-06-26 03:48:00,
2013-06-25 22:54:00,77.7,74.5,29.68,SE,146,0.0,6.0,90,0.00,,,0.03,Wunderground v.1.15,2013-06-26 03:54:00,
2013-06-25 23:00:00,77.7,74.5,29.68,SSE,149,0.0,6.0,90,0.00,,,0.03,Wunderground v.1.15,2013-06-26 04:00:00,
2013-06-25 23:01:00,77.7,74.5,29.68,SSE,149,0.0,6.0,90,0.00,,,0.03,Wunderground v.1.15,2013-06-26 04:01:00,
2013-06-25 23:02:00,77.7,74.5,29.68,SSE,150,0.0,6.0,90,0.00,,,0.03,Wunderground v.1.15,2013-06-26 04:02:00,
2013-06-25 23:03:00,77.7,74.5,29.68,SSE,149,0.0,6.0,90,0.00,,,0.03,Wunderground v.1.15,2013-06-26 04:03:00,
2013-06-25 23:04:00,77.7,74.5,29.68,SSE,150,0.0,6.0,90,0.00,,,0.03,Wunderground v.1.15,2013-06-26 04:04:00,
2013-06-25 23:09:00,77.7,74.5,29.68,SSE,149,0.0,6.0,90,0.00,,,0.03,Wunderground v.1.15,2013-06-26 04:09:00,
2013-06-25 23:15:00,77.7,74.5,29.68,SSE,150,0.0,6.0,90,0.00,,,0.03,Wunderground v.1.15,2013-06-26 04:15:00,
2013-06-25 23:21:00,77.8,74.6,29.68,SSE,149,0.0,6.0,90,0.00,,,0.03,Wunderground v.1.15,2013-06-26 04:21:00,
2013-06-25 23:27:00,77.8,74.6,29.68,SSE,149,0.0,6.0,90,0.00,,,0.03,Wunderground v.1.15,2013-06-26 04:27:00,
2013-06-25 23:32:00,77.7,74.5,29.68,SSE,152,0.0,6.0,90,0.00,,,0.03,Wunderground v.1.15,2013-06-26 04:32:00,
2013-06-25 23:38:00,77.7,74.5,29.67,SSE,152,0.0,6.0,90,0.00,,,0.03,Wunderground v.1.15,2013-06-26 04:38:00,
2013-06-25 23:44:00,77.7,74.2,29.67,SSE,153,0.0,6.0,89,0.00,,,0.03,Wunderground v.1.15,2013-06-26 04:44:00,
2013-06-25 23:50:00,77.7,74.2,29.67,SSE,153,0.0,6.0,89,0.00,,,0.03,Wunderground v.1.15,2013-06-26 04:50:00,
2013-06-25 23:55:00,77.8,74.3,29.67,WNW,285,0.0,6.0,89,0.00,,,0.03,Wunderground v.1.15,2013-06-26 04:55:00,